Time;durP1;ratioP1;P1;durP2;ratioP2;P2;SDS_P1;SDS_P2;PMS_P1;PMS_P2;Temp;Humidity;BMP_temperature;BMP_pressure;BME280_temperature;BME280_humidity;BME280_pressure;Samples;Min_cycle;Max_cycle;Signal;HPM_P1;HPM_P2
2024/01/23 00:01:35;;;;;;;6.47;1.13;;;29.00;91.90;;;;;;4942507;29;20072;-68
2024/01/23 00:04:02;;;;;;;5.25;0.82;;;29.30;91.70;;;;;;4944123;28;20090;-68
2024/01/23 00:06:29;;;;;;;6.55;0.95;;;29.50;90.30;;;;;;4938169;29;20031;-66
2024/01/23 00:08:58;;;;;;;4.90;1.55;;;29.20;90.60;;;;;;4948048;29;20047;-66
2024/01/23 00:11:25;;;;;;;4.65;1.00;;;28.90;90.90;;;;;;4942589;29;20046;-67
2024/01/23 00:13:53;;;;;;;4.45;0.73;;;28.90;90.60;;;;;;4939845;29;20035;-67
2024/01/23 00:16:20;;;;;;;9.90;1.10;;;29.20;90.60;;;;;;4935324;29;20028;-67
2024/01/23 00:18:47;;;;;;;3.55;0.80;;;29.10;90.10;;;;;;4938683;28;20031;-67
2024/01/23 00:21:15;;;;;;;6.40;1.25;;;29.20;90.20;;;;;;4947312;28;20027;-67
2024/01/23 00:23:42;;;;;;;5.00;1.10;;;29.40;90.10;;;;;;4947633;28;20034;-67
2024/01/23 00:26:09;;;;;;;8.10;1.58;;;29.70;87.90;;;;;;4936890;28;20078;-67
2024/01/23 00:28:37;;;;;;;6.68;1.13;;;30.10;88.20;;;;;;4947254;28;20052;-67
2024/01/23 00:31:06;;;;;;;4.35;0.98;;;29.60;86.40;;;;;;4958902;28;20034;-67
2024/01/23 00:33:33;;;;;;;7.82;1.10;;;29.20;87.90;;;;;;4944802;28;20024;-67
2024/01/23 00:36:00;;;;;;;7.78;1.13;;;28.90;89.90;;;;;;4952624;28;20035;-67
2024/01/23 00:38:27;;;;;;;6.18;1.35;;;28.50;90.00;;;;;;4947162;28;20397;-67
2024/01/23 00:40:55;;;;;;;5.40;0.90;;;28.00;90.80;;;;;;4935253;29;20027;-67
2024/01/23 00:43:22;;;;;;;4.65;0.80;;;27.70;91.70;;;;;;4941992;29;20035;-67
2024/01/23 00:45:50;;;;;;;6.78;1.17;;;27.30;92.10;;;;;;4939565;28;20027;-67
2024/01/23 00:48:18;;;;;;;4.82;1.02;;;27.20;92.10;;;;;;4937000;29;20639;-66
2024/01/23 00:50:45;;;;;;;6.55;1.08;;;27.10;92.30;;;;;;4947904;29;20158;-67
2024/01/23 00:53:13;;;;;;;6.25;1.25;;;27.00;92.30;;;;;;4936554;28;20051;-67
2024/01/23 00:55:40;;;;;;;4.68;1.17;;;26.90;92.60;;;;;;4943400;29;20027;-67
2024/01/23 00:58:07;;;;;;;6.75;0.98;;;26.60;92.60;;;;;;4957419;28;20031;-66
2024/01/23 01:00:35;;;;;;;7.75;1.20;;;26.50;93.10;;;;;;4941516;28;20020;-67
2024/01/23 01:03:03;;;;;;;4.45;0.95;;;26.90;93.00;;;;;;4941586;29;20032;-67
2024/01/23 01:05:30;;;;;;;5.38;0.95;;;27.70;92.60;;;;;;4941578;29;20522;-66
2024/01/23 01:07:57;;;;;;;5.30;1.63;;;28.30;91.40;;;;;;4938583;28;20125;-66
2024/01/23 01:10:25;;;;;;;5.05;0.68;;;28.40;91.00;;;;;;4937603;28;20023;-67
2024/01/23 01:12:53;;;;;;;3.78;0.93;;;27.80;91.60;;;;;;4933846;29;20495;-67
2024/01/23 01:15:20;;;;;;;6.80;1.15;;;27.50;91.80;;;;;;4935219;29;20024;-67
2024/01/23 01:17:48;;;;;;;6.95;1.23;;;27.10;92.50;;;;;;4948905;28;20200;-66
2024/01/23 01:20:15;;;;;;;3.95;0.70;;;27.00;92.60;;;;;;4933107;29;20031;-67
2024/01/23 01:22:43;;;;;;;12.90;1.33;;;26.90;93.00;;;;;;4952403;28;20090;-67
2024/01/23 01:25:10;;;;;;;5.32;0.90;;;27.10;92.70;;;;;;4941107;28;20028;-67
2024/01/23 01:27:38;;;;;;;13.48;1.23;;;26.90;92.30;;;;;;4936408;28;20042;-66
2024/01/23 01:30:06;;;;;;;5.40;1.08;;;27.00;92.70;;;;;;4935921;28;20442;-67
2024/01/23 01:32:34;;;;;;;11.93;1.33;;;26.80;92.90;;;;;;4937808;28;20302;-67
2024/01/23 01:35:01;;;;;;;5.28;0.93;;;27.00;92.80;;;;;;4945165;28;20116;-66
2024/01/23 01:37:29;;;;;;;5.63;1.20;;;27.30;92.60;;;;;;4937322;28;20019;-67
2024/01/23 01:39:56;;;;;;;3.28;0.73;;;27.40;92.30;;;;;;4945194;28;20119;-67
2024/01/23 01:42:23;;;;;;;5.93;0.80;;;27.30;93.10;;;;;;4938314;28;20062;-67
2024/01/23 01:44:51;;;;;;;6.47;1.02;;;27.20;91.90;;;;;;4947499;28;20043;-68
2024/01/23 01:47:20;;;;;;;4.93;0.80;;;27.50;91.70;;;;;;4941499;28;20425;-68
2024/01/23 01:49:48;;;;;;;2.55;0.77;;;27.80;91.10;;;;;;4941037;29;20030;-67
2024/01/23 01:52:16;;;;;;;6.32;0.98;;;28.30;90.30;;;;;;4940683;29;20449;-67
2024/01/23 01:54:46;;;;;;;7.22;1.13;;;28.50;90.10;;;;;;4934222;28;20024;-67
2024/01/23 01:57:14;;;;;;;7.65;1.27;;;28.90;90.30;;;;;;4934704;29;20038;-67
2024/01/23 01:59:41;;;;;;;8.15;0.80;;;29.60;90.00;;;;;;4945285;28;20063;-67
2024/01/23 02:02:08;;;;;;;3.47;0.80;;;29.90;85.80;;;;;;4949800;28;20034;-67
2024/01/23 02:04:36;;;;;;;4.72;1.05;;;29.80;87.20;;;;;;4935229;29;20373;-67
2024/01/23 02:07:03;;;;;;;4.93;0.85;;;30.30;85.80;;;;;;4933506;29;20047;-67
2024/01/23 02:09:31;;;;;;;7.28;1.00;;;30.10;84.10;;;;;;4939737;29;20042;-67
2024/01/23 02:12:00;;;;;;;4.20;1.20;;;29.50;85.30;;;;;;4939678;29;20035;-67
2024/01/23 02:14:28;;;;;;;11.30;1.40;;;29.10;86.10;;;;;;4939043;29;20035;-67
2024/01/23 02:16:55;;;;;;;6.03;1.27;;;28.50;87.30;;;;;;4938256;29;20027;-67
2024/01/23 02:19:23;;;;;;;3.45;0.80;;;28.00;88.90;;;;;;4936261;28;20062;-67
2024/01/23 02:21:50;;;;;;;7.28;1.30;;;27.30;90.00;;;;;;4935163;29;20027;-67
2024/01/23 02:24:17;;;;;;;9.48;0.98;;;26.90;90.60;;;;;;4934393;29;20034;-67
2024/01/23 02:26:45;;;;;;;7.63;1.48;;;26.80;91.20;;;;;;4934212;29;20059;-67
2024/01/23 02:29:12;;;;;;;7.72;1.10;;;27.00;90.90;;;;;;4938542;29;20385;-68
2024/01/23 02:31:39;;;;;;;8.07;1.20;;;27.20;91.20;;;;;;4947876;28;20466;-67
2024/01/23 02:34:07;;;;;;;10.30;1.73;;;27.50;90.90;;;;;;4943473;29;20032;-66
2024/01/23 02:36:39;;;;;;;10.73;1.52;;;27.60;90.50;;;;;;4941845;29;20032;-67
2024/01/23 02:39:07;;;;;;;5.47;0.88;;;27.80;90.30;;;;;;4933194;29;20462;-67
2024/01/23 02:41:35;;;;;;;7.45;1.45;;;27.70;90.30;;;;;;4941604;28;20051;-67
2024/01/23 02:44:02;;;;;;;8.85;0.95;;;27.70;90.20;;;;;;4937128;29;20030;-68
2024/01/23 02:46:29;;;;;;;7.50;1.02;;;27.60;90.40;;;;;;4942285;28;20477;-68
2024/01/23 02:48:57;;;;;;;9.23;1.05;;;27.70;90.20;;;;;;4940334;28;20046;-67
2024/01/23 02:51:24;;;;;;;8.23;1.15;;;28.00;90.20;;;;;;4940522;28;20110;-67
2024/01/23 02:53:51;;;;;;;6.43;1.20;;;28.80;88.70;;;;;;4945211;28;20413;-67
2024/01/23 02:56:19;;;;;;;8.55;0.85;;;29.40;86.70;;;;;;4943977;28;20023;-67
2024/01/23 02:58:46;;;;;;;8.23;1.17;;;29.60;85.70;;;;;;4936231;28;20115;-67
2024/01/23 03:01:17;;;;;;;8.27;1.15;;;29.60;85.30;;;;;;4936361;29;20047;-66
2024/01/23 03:03:44;;;;;;;7.22;1.20;;;29.30;84.60;;;;;;4937948;28;20031;-67
2024/01/23 03:06:11;;;;;;;4.80;1.00;;;28.90;85.70;;;;;;4943519;28;20024;-68
2024/01/23 03:08:39;;;;;;;7.40;1.00;;;28.50;86.10;;;;;;4939309;29;20036;-67
2024/01/23 03:11:06;;;;;;;4.97;1.15;;;28.50;86.80;;;;;;4938157;29;20027;-67
2024/01/23 03:13:33;;;;;;;3.00;0.80;;;28.50;87.10;;;;;;4939725;28;20020;-67
2024/01/23 03:16:01;;;;;;;4.85;1.27;;;28.40;87.30;;;;;;4935496;28;20538;-68
2024/01/23 03:18:28;;;;;;;8.63;1.60;;;28.50;87.40;;;;;;4936478;29;20028;-67
2024/01/23 03:20:55;;;;;;;5.95;1.10;;;28.70;86.60;;;;;;4940900;29;20071;-67
2024/01/23 03:23:23;;;;;;;8.82;1.40;;;29.10;86.30;;;;;;4941329;29;20031;-67
2024/01/23 03:25:50;;;;;;;8.90;1.88;;;28.90;84.70;;;;;;4940158;28;20484;-67
2024/01/23 03:28:18;;;;;;;4.95;1.70;;;28.40;86.90;;;;;;4935307;29;20460;-67
2024/01/23 03:30:45;;;;;;;10.10;4.55;;;28.30;87.00;;;;;;4938585;29;20046;-67
2024/01/23 03:33:12;;;;;;;8.77;2.45;;;28.30;87.80;;;;;;4935143;29;20496;-67
2024/01/23 03:35:40;;;;;;;46.70;13.15;;;28.20;87.30;;;;;;4937187;29;20020;-66
2024/01/23 03:38:07;;;;;;;3.65;1.40;;;28.20;87.10;;;;;;4944641;29;20023;-67
2024/01/23 03:40:34;;;;;;;5.35;1.48;;;27.90;86.60;;;;;;4939875;29;20056;-67
2024/01/23 03:43:02;;;;;;;12.18;2.53;;;27.70;87.60;;;;;;4939940;28;20564;-67
2024/01/23 03:45:29;;;;;;;11.05;2.17;;;27.80;87.70;;;;;;4942204;29;20078;-68
2024/01/23 03:47:57;;;;;;;10.95;1.27;;;27.90;87.80;;;;;;4935986;29;20032;-68
2024/01/23 03:50:25;;;;;;;8.80;1.60;;;27.90;86.90;;;;;;4948905;28;20362;-67
2024/01/23 03:52:52;;;;;;;7.82;0.90;;;28.00;85.40;;;;;;4935736;29;20052;-67
2024/01/23 03:55:21;;;;;;;7.32;1.40;;;28.10;86.80;;;;;;4936115;28;20086;-68
2024/01/23 03:57:48;;;;;;;9.38;4.13;;;28.70;85.50;;;;;;4936592;29;20048;-68
2024/01/23 04:00:16;;;;;;;8.05;2.17;;;29.40;84.50;;;;;;4941032;29;20019;-68
2024/01/23 04:02:43;;;;;;;13.65;5.80;;;29.80;82.50;;;;;;4943812;28;20082;-68
2024/01/23 04:05:10;;;;;;;9.00;4.63;;;30.00;82.20;;;;;;4936626;28;20023;-68
2024/01/23 04:07:39;;;;;;;12.30;3.38;;;30.10;81.40;;;;;;4943912;28;20133;-68
2024/01/23 04:10:08;;;;;;;10.50;1.88;;;30.10;80.40;;;;;;4950544;28;20473;-68
2024/01/23 04:12:35;;;;;;;9.10;1.55;;;29.60;80.30;;;;;;4937423;28;20039;-68
2024/01/23 04:15:04;;;;;;;4.68;1.00;;;29.50;81.00;;;;;;4941763;28;20394;-69
2024/01/23 04:17:31;;;;;;;7.70;1.20;;;29.40;81.40;;;;;;4936033;28;20082;-68
2024/01/23 04:19:58;;;;;;;8.05;1.20;;;29.50;81.30;;;;;;4942792;28;20035;-68
2024/01/23 04:22:26;;;;;;;6.75;0.90;;;29.30;80.60;;;;;;4943225;28;20031;-68
2024/01/23 04:24:54;;;;;;;8.85;1.15;;;28.60;81.00;;;;;;4941427;28;20062;-68
2024/01/23 04:27:21;;;;;;;6.82;1.45;;;27.80;83.80;;;;;;4942870;28;20118;-66
2024/01/23 04:29:48;;;;;;;7.13;1.15;;;28.00;83.70;;;;;;4937590;28;20059;-69
2024/01/23 04:32:18;;;;;;;10.45;1.60;;;27.70;84.00;;;;;;4939628;28;20038;-69
2024/01/23 04:34:46;;;;;;;3.83;0.75;;;27.00;86.10;;;;;;4940575;28;20035;-69
2024/01/23 04:37:13;;;;;;;6.90;1.15;;;27.20;85.90;;;;;;4942073;28;20031;-69
2024/01/23 04:39:40;;;;;;;4.78;0.82;;;28.20;86.20;;;;;;4939376;28;20039;-68
2024/01/23 04:42:08;;;;;;;5.80;0.68;;;28.40;82.90;;;;;;4939260;28;20027;-68
2024/01/23 04:44:35;;;;;;;10.13;1.30;;;28.40;83.10;;;;;;4937601;28;20031;-68
2024/01/23 04:47:02;;;;;;;8.50;1.42;;;28.40;83.70;;;;;;4944519;28;20027;-69
2024/01/23 04:49:30;;;;;;;4.18;0.63;;;28.40;83.70;;;;;;4935953;28;20058;-69
2024/01/23 04:51:58;;;;;;;4.70;1.05;;;28.70;82.80;;;;;;4945534;28;20023;-68
2024/01/23 04:54:25;;;;;;;10.60;1.60;;;28.70;82.00;;;;;;4945440;29;20058;-69
2024/01/23 04:56:52;;;;;;;6.15;1.20;;;28.30;82.10;;;;;;4943734;28;20413;-68
2024/01/23 04:59:20;;;;;;;9.57;1.00;;;27.80;83.30;;;;;;4935952;28;21440;-68
2024/01/23 05:01:48;;;;;;;6.50;1.00;;;27.50;84.80;;;;;;4942138;29;20038;-66
2024/01/23 05:04:16;;;;;;;9.25;1.48;;;27.60;84.40;;;;;;4937223;29;20481;-68
2024/01/23 05:06:43;;;;;;;8.77;1.33;;;27.70;84.40;;;;;;4937443;29;20030;-68
2024/01/23 05:09:11;;;;;;;8.77;1.20;;;27.90;84.30;;;;;;4935581;29;20031;-68
2024/01/23 05:11:38;;;;;;;6.57;1.17;;;28.10;83.80;;;;;;4943868;28;20028;-68
2024/01/23 05:14:06;;;;;;;5.25;1.10;;;28.60;82.20;;;;;;4941862;29;20031;-69
2024/01/23 05:16:34;;;;;;;4.80;0.90;;;28.80;82.70;;;;;;4944934;28;20496;-69
2024/01/23 05:19:01;;;;;;;6.45;1.20;;;29.40;81.70;;;;;;4934644;29;20023;-69
2024/01/23 05:21:29;;;;;;;5.05;0.90;;;29.80;80.10;;;;;;4938065;28;20473;-69
2024/01/23 05:23:56;;;;;;;4.78;1.00;;;29.70;79.40;;;;;;4948823;29;20027;-69
2024/01/23 05:26:24;;;;;;;6.80;1.10;;;29.60;78.80;;;;;;4943681;29;20067;-68
2024/01/23 05:28:53;;;;;;;5.40;0.80;;;29.60;78.80;;;;;;4939091;28;20179;-68
2024/01/23 05:31:20;;;;;;;5.30;0.80;;;29.60;79.70;;;;;;4937100;28;20119;-68
2024/01/23 05:33:47;;;;;;;3.58;0.82;;;29.70;78.30;;;;;;4943912;29;20094;-69
2024/01/23 05:36:18;;;;;;;10.23;1.33;;;29.70;78.40;;;;;;4936673;29;20027;-67
2024/01/23 05:38:46;;;;;;;4.45;1.10;;;29.60;78.10;;;;;;4938578;29;20058;-68
2024/01/23 05:41:13;;;;;;;5.40;1.20;;;29.60;77.90;;;;;;4943238;28;20028;-68
2024/01/23 05:43:40;;;;;;;6.82;1.00;;;29.50;77.90;;;;;;4936287;29;20499;-68
2024/01/23 05:46:08;;;;;;;4.63;1.10;;;29.30;77.80;;;;;;4938123;29;20640;-68
2024/01/23 05:48:35;;;;;;;6.53;1.33;;;29.20;78.30;;;;;;4936272;28;20121;-68
2024/01/23 05:51:03;;;;;;;5.82;1.20;;;28.70;79.20;;;;;;4945050;28;20038;-68
2024/01/23 05:53:30;;;;;;;6.80;1.10;;;28.20;79.70;;;;;;4937247;28;20035;-68
2024/01/23 05:55:57;;;;;;;10.95;1.10;;;28.00;80.80;;;;;;4940113;28;20027;-68
2024/01/23 05:58:25;;;;;;;4.07;1.17;;;28.20;81.10;;;;;;4941292;28;20520;-68
2024/01/23 06:00:52;;;;;;;10.73;1.40;;;28.70;81.10;;;;;;4938309;28;20050;-68
2024/01/23 06:03:20;;;;;;;7.15;1.17;;;29.00;79.50;;;;;;4942808;29;20114;-69
2024/01/23 06:05:47;;;;;;;8.45;1.30;;;28.80;80.10;;;;;;4938071;29;20029;-69
2024/01/23 06:08:14;;;;;;;7.28;1.02;;;28.60;79.90;;;;;;4937458;28;20492;-68
2024/01/23 06:10:43;;;;;;;8.80;1.17;;;28.40;81.20;;;;;;4939142;28;20066;-69
2024/01/23 06:13:11;;;;;;;6.53;1.10;;;28.20;81.20;;;;;;4946153;28;20039;-69
2024/01/23 06:15:38;;;;;;;8.57;0.82;;;27.90;82.00;;;;;;4941890;28;20054;-68
2024/01/23 06:18:07;;;;;;;6.25;1.00;;;27.60;82.50;;;;;;4940989;28;20393;-69
2024/01/23 06:20:35;;;;;;;5.72;1.02;;;27.40;83.00;;;;;;4939253;29;20031;-68
2024/01/23 06:23:02;;;;;;;7.55;1.20;;;27.40;83.00;;;;;;4954981;28;20027;-66
2024/01/23 06:25:31;;;;;;;6.35;1.05;;;27.30;82.60;;;;;;4950761;29;20114;-67
2024/01/23 06:27:58;;;;;;;6.53;1.10;;;26.90;83.60;;;;;;4944245;29;20042;-67
2024/01/23 06:30:26;;;;;;;6.18;1.17;;;27.20;84.00;;;;;;4937712;29;20059;-67
2024/01/23 06:32:57;;;;;;;10.48;1.17;;;27.40;83.30;;;;;;4952437;28;20110;-66
2024/01/23 06:35:24;;;;;;;11.95;1.27;;;27.40;82.80;;;;;;4951643;29;20058;-66
2024/01/23 06:37:52;;;;;;;6.32;1.55;;;27.40;83.30;;;;;;4942436;28;20028;-65
2024/01/23 06:40:19;;;;;;;9.63;1.60;;;27.20;82.70;;;;;;4938690;29;20023;-66
2024/01/23 06:42:47;;;;;;;7.07;1.05;;;27.20;83.40;;;;;;4948546;28;20106;-66
2024/01/23 06:45:15;;;;;;;6.05;0.70;;;27.10;82.70;;;;;;4941109;28;20464;-66
2024/01/23 06:47:42;;;;;;;7.00;1.15;;;26.90;83.00;;;;;;4957551;28;20150;-66
2024/01/23 06:50:10;;;;;;;9.50;1.70;;;26.90;83.70;;;;;;4937389;29;20469;-67
2024/01/23 06:52:37;;;;;;;6.40;1.10;;;27.20;82.70;;;;;;4941389;29;20055;-67
2024/01/23 06:55:05;;;;;;;5.03;1.15;;;27.40;82.10;;;;;;4944859;29;20477;-67
2024/01/23 06:57:32;;;;;;;10.23;1.42;;;27.20;81.90;;;;;;4943591;28;20525;-66
2024/01/23 07:00:00;;;;;;;9.60;1.10;;;27.00;82.40;;;;;;4954529;28;20422;-67
2024/01/23 07:02:27;;;;;;;10.50;2.33;;;26.90;82.40;;;;;;4940582;28;20449;-68
2024/01/23 07:04:54;;;;;;;7.63;1.20;;;26.60;83.00;;;;;;4938800;29;20104;-67
2024/01/23 07:07:22;;;;;;;7.65;1.00;;;26.60;83.60;;;;;;4946355;28;20042;-68
2024/01/23 07:09:49;;;;;;;8.82;1.20;;;26.60;83.30;;;;;;4937811;29;20485;-68
2024/01/23 07:12:17;;;;;;;7.53;1.42;;;26.50;83.60;;;;;;4938976;28;20405;-67
2024/01/23 07:14:44;;;;;;;6.88;1.00;;;26.30;83.40;;;;;;4937345;28;20719;-68
2024/01/23 07:17:11;;;;;;;6.07;1.33;;;26.30;83.50;;;;;;4939512;28;20473;-68
2024/01/23 07:19:39;;;;;;;11.27;1.20;;;26.30;83.90;;;;;;4943475;28;20101;-67
2024/01/23 07:22:06;;;;;;;5.60;1.05;;;26.20;84.10;;;;;;4946414;29;20079;-67
2024/01/23 07:24:33;;;;;;;11.50;1.00;;;26.20;84.40;;;;;;4942297;28;20031;-68
2024/01/23 07:27:01;;;;;;;14.60;1.45;;;25.90;84.30;;;;;;4945389;28;20031;-67
2024/01/23 07:29:28;;;;;;;12.98;1.40;;;25.80;84.80;;;;;;4943373;29;20031;-68
2024/01/23 07:31:57;;;;;;;4.40;0.98;;;25.90;84.80;;;;;;4938559;29;20473;-67
2024/01/23 07:34:24;;;;;;;6.30;0.85;;;25.80;84.90;;;;;;4947763;28;20350;-67
2024/01/23 07:36:51;;;;;;;9.35;1.10;;;25.90;84.90;;;;;;4946269;28;20469;-68
2024/01/23 07:39:19;;;;;;;7.25;1.02;;;25.90;84.50;;;;;;4947992;28;20350;-68
2024/01/23 07:41:46;;;;;;;10.80;1.10;;;26.00;84.70;;;;;;4939615;28;20086;-68
2024/01/23 07:44:14;;;;;;;4.45;1.23;;;26.00;84.50;;;;;;4940769;29;20054;-67
2024/01/23 07:46:41;;;;;;;8.90;1.35;;;26.00;84.20;;;;;;4943318;28;20043;-68
2024/01/23 07:49:09;;;;;;;4.82;0.90;;;25.90;84.50;;;;;;4934982;29;20488;-68
2024/01/23 07:51:49;;;;;;;7.82;0.90;;;25.90;84.50;;;;;;4941767;29;20047;-68
2024/01/23 07:54:17;;;;;;;7.25;0.90;;;25.70;85.00;;;;;;4938048;28;20056;-68
2024/01/23 07:56:44;;;;;;;13.70;1.75;;;25.70;85.50;;;;;;4943079;29;20373;-68
2024/01/23 07:59:12;;;;;;;6.30;0.90;;;25.60;85.40;;;;;;4934940;29;20095;-67
2024/01/23 08:01:39;;;;;;;9.75;1.38;;;25.60;85.50;;;;;;4944178;28;20055;-67
2024/01/23 08:04:07;;;;;;;7.97;1.25;;;25.60;85.70;;;;;;4956633;28;20461;-67
2024/01/23 08:06:34;;;;;;;11.90;1.20;;;25.60;85.70;;;;;;4945262;29;20020;-67
2024/01/23 08:09:04;;;;;;;8.77;1.30;;;25.40;85.80;;;;;;4940623;28;20035;-67
2024/01/23 08:11:32;;;;;;;6.35;1.10;;;25.30;86.60;;;;;;4936214;29;20059;-68
2024/01/23 08:13:59;;;;;;;5.95;1.13;;;25.30;86.60;;;;;;4941235;29;20027;-68
2024/01/23 08:16:27;;;;;;;5.13;1.13;;;25.10;86.90;;;;;;4939498;29;20023;-67
2024/01/23 08:18:54;;;;;;;5.88;0.90;;;25.20;87.30;;;;;;4944598;28;20028;-67
2024/01/23 08:21:22;;;;;;;5.45;1.10;;;25.20;87.20;;;;;;4937665;28;20026;-67
2024/01/23 08:23:49;;;;;;;3.67;0.68;;;25.20;86.80;;;;;;4941786;29;20036;-67
2024/01/23 08:26:19;;;;;;;9.30;0.80;;;25.00;87.40;;;;;;4935360;28;20035;-68
2024/01/23 08:28:47;;;;;;;7.43;1.10;;;24.90;87.60;;;;;;4940429;28;20038;-67
2024/01/23 08:31:14;;;;;;;5.22;0.90;;;24.90;87.30;;;;;;4939977;29;20059;-68
2024/01/23 08:33:43;;;;;;;5.38;0.80;;;24.90;87.80;;;;;;4939495;29;20079;-69
2024/01/23 08:36:12;;;;;;;7.13;0.90;;;24.80;88.00;;;;;;4935326;29;20059;-68
2024/01/23 08:38:41;;;;;;;7.22;0.82;;;24.70;87.90;;;;;;4935288;28;20550;-69
2024/01/23 08:41:08;;;;;;;2.22;0.73;;;24.50;88.80;;;;;;4940948;28;20027;-68
2024/01/23 08:43:36;;;;;;;5.63;1.20;;;24.70;88.50;;;;;;4934500;29;20027;-68
2024/01/23 08:46:03;;;;;;;5.93;1.20;;;24.50;89.10;;;;;;4951874;28;20043;-68
2024/01/23 08:48:31;;;;;;;10.70;1.30;;;24.60;89.10;;;;;;4940737;29;20050;-68
2024/01/23 08:51:02;;;;;;;6.93;1.02;;;24.50;89.20;;;;;;4948441;28;20115;-68
2024/01/23 08:53:29;;;;;;;7.85;1.00;;;24.50;89.50;;;;;;4933023;29;20039;-68
2024/01/23 08:55:57;;;;;;;8.13;1.17;;;24.50;90.00;;;;;;4945487;29;20035;-68
2024/01/23 08:58:24;;;;;;;8.65;1.00;;;24.60;89.80;;;;;;4936024;29;20529;-67
2024/01/23 09:00:51;;;;;;;11.43;1.80;;;24.60;89.80;;;;;;4936298;29;20042;-67
2024/01/23 09:03:19;;;;;;;12.48;1.33;;;24.60;89.80;;;;;;4939762;29;20107;-67
2024/01/23 09:05:46;;;;;;;6.47;0.88;;;24.70;89.70;;;;;;4941060;29;20033;-68
2024/01/23 09:08:13;;;;;;;7.05;0.90;;;24.60;90.00;;;;;;4934455;29;20039;-68
2024/01/23 09:10:41;;;;;;;5.35;0.77;;;24.60;90.00;;;;;;4948362;28;20425;-68
2024/01/23 09:13:08;;;;;;;8.93;1.10;;;24.50;90.20;;;;;;4936294;28;20116;-68
2024/01/23 09:15:37;;;;;;;9.45;1.70;;;24.40;90.30;;;;;;4936136;28;20102;-67
2024/01/23 09:18:04;;;;;;;4.85;0.95;;;24.30;90.70;;;;;;4935965;28;20389;-67
2024/01/23 09:20:32;;;;;;;9.18;1.67;;;24.10;91.00;;;;;;4939902;28;20031;-67
2024/01/23 09:22:59;;;;;;;6.70;1.15;;;24.10;91.00;;;;;;4935661;28;20032;-67
2024/01/23 09:25:26;;;;;;;3.70;1.35;;;24.20;90.80;;;;;;4936635;29;20043;-67
2024/01/23 09:27:55;;;;;;;7.65;1.73;;;24.20;90.90;;;;;;4939225;29;20036;-69
2024/01/23 09:30:24;;;;;;;6.60;0.98;;;23.90;91.20;;;;;;4937969;28;20046;-68
2024/01/23 09:32:52;;;;;;;13.75;1.52;;;23.90;91.50;;;;;;4939250;28;20107;-68
2024/01/23 09:35:19;;;;;;;8.52;1.08;;;23.90;91.90;;;;;;4942929;28;20030;-68
2024/01/23 09:37:47;;;;;;;3.58;0.80;;;23.90;91.70;;;;;;4943271;29;20150;-67
2024/01/23 09:40:15;;;;;;;5.88;0.95;;;23.90;91.80;;;;;;4944040;28;20042;-66
2024/01/23 09:42:44;;;;;;;9.68;1.40;;;23.80;91.60;;;;;;4942303;28;20032;-68
2024/01/23 09:45:19;;;;;;;5.78;1.20;;;23.70;92.10;;;;;;4936872;28;20493;-66
2024/01/23 09:47:48;;;;;;;6.95;1.23;;;23.60;92.00;;;;;;4942214;28;20079;-67
2024/01/23 09:50:18;;;;;;;5.60;1.20;;;23.60;92.60;;;;;;4946480;28;20500;-67
2024/01/23 09:52:47;;;;;;;7.35;1.10;;;23.60;92.30;;;;;;4944848;29;20055;-68
2024/01/23 09:55:16;;;;;;;7.43;0.93;;;23.60;92.40;;;;;;4938683;29;20046;-68
2024/01/23 09:57:45;;;;;;;7.65;1.27;;;23.70;92.30;;;;;;4938071;28;20386;-68
2024/01/23 10:00:13;;;;;;;7.63;1.25;;;23.70;92.40;;;;;;4946495;29;20481;-69
2024/01/23 10:02:42;;;;;;;7.97;1.02;;;23.60;92.20;;;;;;4942900;28;20024;-68
2024/01/23 10:05:12;;;;;;;10.88;1.23;;;23.60;92.30;;;;;;4942193;29;20027;-69
2024/01/23 10:07:41;;;;;;;9.73;1.58;;;23.50;92.40;;;;;;4940542;29;20504;-69
2024/01/23 10:10:14;;;;;;;10.05;1.77;;;23.50;92.70;;;;;;4940809;29;20031;-68
2024/01/23 10:12:45;;;;;;;6.60;1.20;;;23.60;92.90;;;;;;4943160;28;20122;-68
2024/01/23 10:15:22;;;;;;;9.60;2.08;;;23.70;92.50;;;;;;4937997;29;20024;-68
2024/01/23 10:17:51;;;;;;;8.05;1.40;;;23.50;92.40;;;;;;4944453;28;20032;-68
2024/01/23 10:20:19;;;;;;;8.45;1.45;;;23.50;92.90;;;;;;4946868;28;20608;-68
2024/01/23 10:22:47;;;;;;;6.25;1.45;;;23.50;92.80;;;;;;4939920;28;20122;-68
2024/01/23 10:25:20;;;;;;;9.73;1.40;;;23.40;92.80;;;;;;4942435;28;20122;-68
2024/01/23 10:27:56;;;;;;;6.68;0.90;;;23.30;93.00;;;;;;4936063;29;20442;-67
2024/01/23 10:30:24;;;;;;;6.07;1.52;;;23.10;93.20;;;;;;4950200;29;20389;-68
2024/01/23 10:32:52;;;;;;;8.07;1.10;;;23.00;93.70;;;;;;4945661;29;20039;-68
2024/01/23 10:35:20;;;;;;;4.95;1.10;;;23.00;93.50;;;;;;4945533;28;20516;-68
2024/01/23 10:37:49;;;;;;;5.70;1.25;;;23.00;93.60;;;;;;4947034;29;20063;-68
2024/01/23 10:40:23;;;;;;;11.20;1.50;;;22.90;94.10;;;;;;4957039;28;20473;-68
2024/01/23 10:42:51;;;;;;;10.23;1.02;;;22.80;94.20;;;;;;4943611;29;20477;-68
2024/01/23 10:45:19;;;;;;;9.20;1.30;;;22.80;94.00;;;;;;4941739;28;20071;-68
2024/01/23 10:47:47;;;;;;;8.48;1.45;;;22.70;94.30;;;;;;4940135;28;20476;-68
2024/01/23 10:50:15;;;;;;;4.75;0.90;;;22.80;94.20;;;;;;4941330;28;20039;-67
2024/01/23 10:52:48;;;;;;;6.40;1.30;;;22.60;94.40;;;;;;4941024;28;20075;-68
2024/01/23 10:55:18;;;;;;;8.02;1.33;;;22.50;94.70;;;;;;4977962;28;20058;-68
2024/01/23 10:57:51;;;;;;;9.32;1.00;;;22.60;95.00;;;;;;4945608;29;20079;-67
2024/01/23 11:00:20;;;;;;;6.50;0.98;;;22.50;94.70;;;;;;4943773;29;20046;-67
2024/01/23 11:02:58;;;;;;;9.05;1.73;;;22.40;95.00;;;;;;4944214;28;20075;-67
2024/01/23 11:05:49;;;;;;;7.00;1.23;;;22.30;95.20;;;;;;4939381;29;20056;-67
2024/01/23 11:08:23;;;;;;;10.68;1.35;;;22.30;95.30;;;;;;4944776;29;20086;-67
2024/01/23 11:11:16;;;;;;;11.13;2.13;;;22.30;95.30;;;;;;4940489;28;20051;-67
2024/01/23 11:13:52;;;;;;;9.30;1.92;;;22.30;95.60;;;;;;4944348;28;20161;-68
2024/01/23 11:16:20;;;;;;;5.72;0.88;;;22.10;95.70;;;;;;4939733;29;20028;-67
2024/01/23 11:18:47;;;;;;;4.65;1.10;;;22.20;95.80;;;;;;4936817;28;20070;-68
2024/01/23 11:21:22;;;;;;;10.15;1.67;;;22.10;95.90;;;;;;4942442;28;20042;-68
2024/01/23 11:24:00;;;;;;;7.13;1.20;;;22.10;96.00;;;;;;4945582;29;20033;-68
2024/01/23 11:26:30;;;;;;;5.57;1.50;;;22.10;96.30;;;;;;4942543;28;20404;-68
2024/01/23 11:29:07;;;;;;;3.80;0.98;;;22.10;96.20;;;;;;4942601;29;20039;-68
2024/01/23 11:31:39;;;;;;;;;;;21.90;96.30;;;;;;4942978;28;20027;-68
2024/01/23 11:34:25;;;;;;;7.35;1.63;;;21.90;96.60;;;;;;4941086;28;19918;-68
2024/01/23 11:36:53;;;;;;;12.85;1.27;;;21.90;96.60;;;;;;4946210;28;20027;-69
2024/01/23 11:39:27;;;;;;;9.25;1.70;;;21.90;96.60;;;;;;4943182;29;20024;-69
2024/01/23 11:41:55;;;;;;;9.18;1.40;;;21.80;96.80;;;;;;4942889;29;20445;-69
2024/01/23 11:44:23;;;;;;;7.57;1.40;;;21.70;96.90;;;;;;4943814;29;20034;-70
2024/01/23 11:46:51;;;;;;;5.50;1.02;;;21.70;97.10;;;;;;4938054;28;20155;-72
2024/01/23 11:49:18;;;;;;;8.52;1.40;;;21.70;97.00;;;;;;4935498;28;20039;-70
2024/01/23 11:51:49;;;;;;;9.95;1.77;;;21.70;97.10;;;;;;4942590;29;20062;-70
2024/01/23 11:54:17;;;;;;;6.70;1.40;;;21.70;97.00;;;;;;4945513;28;20047;-70
2024/01/23 11:56:44;;;;;;;5.50;1.25;;;21.60;97.20;;;;;;4941802;28;20035;-70
2024/01/23 11:59:12;;;;;;;13.65;2.00;;;21.60;97.40;;;;;;4945116;28;20027;-69
2024/01/23 12:01:43;;;;;;;8.43;1.60;;;21.50;97.60;;;;;;4936405;28;20028;-68
2024/01/23 12:04:11;;;;;;;5.32;1.15;;;21.50;97.60;;;;;;4936884;28;20032;-68
2024/01/23 12:06:39;;;;;;;9.73;1.52;;;21.40;97.80;;;;;;4943398;28;20035;-67
2024/01/23 12:09:08;;;;;;;7.13;1.77;;;21.30;97.80;;;;;;4934937;29;20187;-68
2024/01/23 12:11:37;;;;;;;8.35;1.38;;;21.30;98.00;;;;;;4943609;28;20027;-67
2024/01/23 12:14:05;;;;;;;8.07;1.70;;;21.30;98.10;;;;;;4958934;28;20031;-68
2024/01/23 12:16:34;;;;;;;5.88;1.00;;;21.20;98.30;;;;;;4946595;28;20039;-69
2024/01/23 12:19:02;;;;;;;9.13;1.70;;;21.10;98.40;;;;;;4944406;29;20027;-69
2024/01/23 12:21:30;;;;;;;6.22;1.25;;;21.10;98.60;;;;;;4934270;28;20115;-69
2024/01/23 12:23:59;;;;;;;5.07;1.45;;;21.00;98.70;;;;;;4939254;29;20034;-70
2024/01/23 12:26:27;;;;;;;6.53;0.93;;;21.10;98.70;;;;;;4948535;28;20166;-69
2024/01/23 12:28:55;;;;;;;9.65;1.73;;;21.00;98.80;;;;;;4949239;28;20042;-69
2024/01/23 12:31:23;;;;;;;4.70;1.00;;;20.90;98.90;;;;;;4951782;28;20393;-69
2024/01/23 12:33:51;;;;;;;8.45;1.88;;;20.80;99.10;;;;;;4937143;28;20090;-68
2024/01/23 12:36:19;;;;;;;7.95;1.42;;;20.80;99.30;;;;;;4941597;29;20035;-69
2024/01/23 12:38:47;;;;;;;9.40;1.88;;;20.70;99.40;;;;;;4942753;28;20039;-68
2024/01/23 12:41:15;;;;;;;7.78;1.60;;;20.60;99.60;;;;;;4935312;29;20477;-70
2024/01/23 12:43:43;;;;;;;10.13;1.27;;;20.60;99.60;;;;;;4942276;29;20470;-69
2024/01/23 12:46:16;;;;;;;5.82;1.30;;;20.60;99.70;;;;;;4934900;29;20158;-69
2024/01/23 12:48:44;;;;;;;9.75;1.30;;;20.70;99.70;;;;;;4939580;28;20130;-69
2024/01/23 12:51:18;;;;;;;3.88;1.20;;;20.60;99.80;;;;;;4942172;29;20028;-68